createdAt,value
2022-11-13T00:00:01.833Z,11.15
2022-11-13T00:02:28.211Z,11.27
2022-11-13T00:04:54.580Z,11.05
2022-11-13T00:07:20.997Z,11.63
2022-11-13T00:09:47.380Z,11.82
2022-11-13T00:12:13.714Z,11.77
2022-11-13T00:14:40.042Z,11.55
2022-11-13T00:17:06.360Z,11.60
2022-11-13T00:19:32.709Z,12.18
2022-11-13T00:22:00.173Z,12.20
2022-11-13T00:24:26.670Z,11.82
2022-11-13T00:26:53.010Z,12.10
2022-11-13T00:29:19.334Z,11.23
2022-11-13T00:31:45.640Z,11.73
2022-11-13T00:34:41.093Z,12.10
2022-11-13T00:36:58.285Z,12.10
2022-11-13T00:39:24.586Z,11.40
2022-11-13T00:41:51.743Z,11.18
2022-11-13T00:44:18.083Z,11.82
2022-11-13T00:46:44.413Z,12.88
2022-11-13T00:49:10.759Z,11.60
2022-11-13T00:51:37.109Z,11.48
2022-11-13T00:54:03.493Z,11.10
2022-11-13T00:56:29.888Z,11.57
2022-11-13T00:58:56.306Z,11.25
2022-11-13T01:01:22.733Z,12.00
2022-11-13T01:03:49.088Z,11.10
2022-11-13T01:06:19.260Z,11.55
2022-11-13T01:08:46.001Z,11.82
2022-11-13T01:11:15.947Z,11.45
2022-11-13T01:13:44.256Z,11.02
2022-11-13T01:16:12.658Z,11.13
2022-11-13T01:18:39.233Z,11.38
2022-11-13T01:21:08.618Z,11.85
2022-11-13T01:23:35.796Z,10.82
2022-11-13T01:26:07.944Z,11.43
2022-11-13T01:28:34.413Z,11.27
2022-11-13T01:31:00.812Z,11.38
2022-11-13T01:33:27.169Z,9.68
2022-11-13T01:35:59.989Z,9.57
2022-11-13T01:38:26.675Z,10.82
2022-11-13T01:40:53.309Z,10.98
2022-11-13T01:43:23.673Z,10.88
2022-11-13T01:45:59.011Z,12.05
2022-11-13T01:48:42.120Z,11.43
2022-11-13T01:51:12.606Z,11.82
2022-11-13T01:53:42.329Z,10.52
2022-11-13T01:56:09.034Z,11.13
2022-11-13T01:58:35.769Z,11.25
2022-11-13T02:01:02.768Z,11.43
2022-11-13T02:03:29.106Z,12.10
2022-11-13T02:05:56.325Z,11.45
2022-11-13T02:08:23.317Z,11.02
2022-11-13T02:10:49.934Z,11.68
2022-11-13T02:13:16.608Z,11.43
2022-11-13T02:15:45.643Z,11.95
2022-11-13T02:18:13.610Z,11.65
2022-11-13T02:20:50.999Z,12.13
2022-11-13T02:23:24.835Z,11.50
2022-11-13T02:25:53.025Z,10.77
2022-11-13T02:28:20.039Z,11.45
2022-11-13T02:30:46.418Z,10.75
2022-11-13T02:33:25.462Z,11.35
2022-11-13T02:35:51.894Z,10.98
2022-11-13T02:38:18.346Z,10.82
2022-11-13T02:40:44.914Z,10.55
2022-11-13T02:43:11.255Z,10.82
2022-11-13T02:45:38.659Z,11.25
2022-11-13T02:48:06.417Z,11.52
2022-11-13T02:50:34.356Z,11.60
2022-11-13T02:53:00.893Z,10.85
2022-11-13T02:55:27.238Z,10.98
2022-11-13T02:57:53.814Z,10.98
2022-11-13T03:00:20.287Z,10.95
2022-11-13T03:02:46.643Z,10.65
2022-11-13T03:05:14.011Z,11.45
2022-11-13T03:07:41.576Z,11.30
2022-11-13T03:10:09.574Z,10.98
2022-11-13T03:12:36.311Z,11.32
2022-11-13T03:15:03.191Z,11.60
2022-11-13T03:17:32.634Z,11.75
2022-11-13T03:19:59.523Z,11.05
2022-11-13T03:22:26.500Z,11.73
2022-11-13T03:24:52.926Z,11.32
2022-11-13T03:27:19.831Z,11.48
2022-11-13T03:29:46.161Z,11.75
2022-11-13T03:32:12.501Z,11.85
2022-11-13T03:34:39.186Z,11.35
2022-11-13T03:37:05.564Z,11.90
2022-11-13T03:39:31.902Z,10.88
2022-11-13T03:41:58.214Z,11.82
2022-11-13T03:44:24.527Z,12.00
2022-11-13T03:46:50.844Z,12.10
2022-11-13T03:49:17.205Z,12.48
2022-11-13T03:51:43.574Z,10.57
2022-11-13T03:54:09.929Z,11.85
2022-11-13T03:56:36.362Z,11.25
2022-11-13T03:59:02.677Z,11.23
2022-11-13T04:01:29.162Z,11.35
2022-11-13T04:03:55.566Z,11.38
2022-11-13T04:06:21.964Z,11.63
2022-11-13T04:08:48.289Z,11.10
2022-11-13T04:11:14.623Z,11.15
2022-11-13T04:13:41.023Z,11.63
2022-11-13T04:16:07.560Z,10.35
2022-11-13T04:18:33.882Z,11.38
2022-11-13T04:21:04.741Z,11.65
2022-11-13T04:23:31.221Z,12.15
2022-11-13T04:25:58.013Z,10.95
2022-11-13T04:28:24.569Z,11.43
2022-11-13T04:30:54.185Z,11.07
2022-11-13T04:33:20.596Z,11.45
2022-11-13T04:35:48.395Z,11.75
2022-11-13T04:38:14.983Z,12.53
2022-11-13T04:40:41.942Z,11.90
2022-11-13T04:43:08.333Z,11.75
2022-11-13T04:45:35.518Z,11.82
2022-11-13T04:48:01.819Z,11.48
2022-11-13T04:50:28.402Z,10.57
2022-11-13T04:52:54.831Z,10.63
2022-11-13T04:55:21.172Z,10.73
2022-11-13T04:57:47.518Z,11.52
2022-11-13T05:00:14.215Z,11.40
2022-11-13T05:02:40.563Z,11.52
2022-11-13T05:05:07.412Z,10.43
2022-11-13T05:07:33.881Z,11.10
2022-11-13T05:10:00.334Z,11.10
2022-11-13T05:12:26.642Z,11.48
2022-11-13T05:14:52.976Z,11.45
2022-11-13T05:17:19.323Z,11.00
2022-11-13T05:19:45.661Z,10.77
2022-11-13T05:22:11.972Z,11.07
2022-11-13T05:24:38.304Z,10.98
2022-11-13T05:27:04.638Z,11.70
2022-11-13T05:29:30.937Z,11.13
2022-11-13T05:31:57.276Z,11.38
2022-11-13T05:34:23.705Z,11.55
2022-11-13T05:36:50.076Z,11.43
2022-11-13T05:39:16.531Z,11.70
2022-11-13T05:41:42.906Z,10.70
2022-11-13T05:44:09.416Z,11.32
2022-11-13T05:46:35.880Z,11.68
2022-11-13T05:49:02.868Z,11.45
2022-11-13T05:51:33.161Z,11.27
2022-11-13T05:54:00.104Z,11.20
2022-11-13T05:56:29.339Z,11.07
2022-11-13T05:58:56.440Z,10.23
2022-11-13T06:01:32.192Z,10.13
2022-11-13T06:04:00.682Z,10.93
2022-11-13T06:06:28.683Z,10.15
2022-11-13T06:08:56.684Z,9.48
2022-11-13T06:11:25.186Z,10.40
2022-11-13T06:13:52.478Z,10.27
2022-11-13T06:16:28.768Z,10.57
2022-11-13T06:18:58.118Z,10.65
2022-11-13T06:21:27.218Z,10.82
2022-11-13T06:23:53.955Z,9.50
2022-11-13T06:26:30.305Z,10.98
2022-11-13T06:28:57.490Z,10.85
2022-11-13T06:31:29.192Z,10.00
2022-11-13T06:33:56.913Z,10.65
2022-11-13T06:36:26.466Z,9.73
2022-11-13T06:38:53.075Z,9.57
2022-11-13T06:41:21.901Z,10.80
2022-11-13T06:46:17.556Z,9.05
2022-11-13T06:48:44.394Z,10.20
2022-11-13T06:51:17.297Z,10.48
2022-11-13T06:53:43.890Z,9.93
2022-11-13T06:56:11.507Z,10.05
2022-11-13T06:58:38.567Z,10.60
2022-11-13T07:01:13.057Z,10.20
2022-11-13T07:03:39.929Z,11.00
2022-11-13T07:06:09.381Z,10.07
2022-11-13T07:08:36.096Z,10.63
2022-11-13T07:11:02.457Z,11.23
2022-11-13T07:13:29.164Z,10.93
2022-11-13T07:16:05.987Z,10.20
2022-11-13T07:18:39.831Z,10.23
2022-11-13T07:21:08.495Z,10.75
2022-11-13T07:26:04.466Z,10.38
2022-11-13T07:28:31.164Z,9.88
2022-11-13T07:31:01.291Z,9.95
2022-11-13T07:33:27.654Z,9.18
2022-11-13T07:35:55.799Z,10.70
2022-11-13T07:38:22.480Z,10.55
2022-11-13T07:40:49.332Z,10.13
2022-11-13T07:43:15.716Z,10.48
2022-11-13T07:45:42.053Z,10.57
2022-11-13T07:48:09.941Z,10.20
2022-11-13T07:50:37.812Z,10.70
2022-11-13T07:53:07.195Z,10.83
2022-11-13T07:55:35.001Z,9.85
2022-11-13T07:58:02.229Z,10.77
2022-11-13T08:00:29.988Z,10.75
2022-11-13T08:02:56.641Z,11.50
2022-11-13T08:05:23.146Z,11.13
2022-11-13T08:07:51.660Z,10.95
2022-11-13T08:10:19.778Z,10.77
2022-11-13T08:12:47.014Z,10.15
2022-11-13T08:15:13.991Z,11.50
2022-11-13T08:17:40.517Z,10.23
2022-11-13T08:20:08.921Z,10.48
2022-11-13T08:22:35.361Z,11.35
2022-11-13T08:25:01.665Z,10.35
2022-11-13T08:27:27.989Z,10.68
2022-11-13T08:29:54.577Z,10.23
2022-11-13T08:32:22.458Z,10.23
2022-11-13T08:34:48.905Z,9.43
2022-11-13T08:37:15.308Z,11.07
2022-11-13T08:39:41.669Z,10.10
2022-11-13T08:42:08.038Z,10.57
2022-11-13T08:44:34.326Z,11.40
2022-11-13T08:47:00.675Z,11.63
2022-11-13T08:49:27.005Z,10.73
2022-11-13T08:51:53.352Z,11.02
2022-11-13T08:54:20.750Z,7.75
2022-11-13T08:56:54.488Z,11.23
2022-11-13T08:59:23.584Z,10.95
2022-11-13T09:01:50.319Z,10.65
2022-11-13T09:04:17.184Z,10.82
2022-11-13T09:06:43.571Z,9.55
2022-11-13T09:09:10.117Z,11.65
2022-11-13T09:11:36.465Z,9.63
2022-11-13T09:14:02.798Z,10.60
2022-11-13T09:16:29.192Z,11.85
2022-11-13T09:18:55.554Z,11.57
2022-11-13T09:21:21.921Z,10.88
2022-11-13T09:23:48.366Z,9.50
2022-11-13T09:26:14.816Z,9.85
2022-11-13T09:28:41.140Z,10.65
2022-11-13T09:31:07.870Z,10.85
2022-11-13T09:33:34.840Z,10.13
2022-11-13T09:36:01.374Z,11.90
2022-11-13T09:38:29.718Z,10.48
2022-11-13T09:41:04.007Z,11.00
2022-11-13T09:43:59.758Z,11.50
2022-11-13T09:46:42.354Z,10.48
2022-11-13T09:49:21.934Z,10.73
2022-11-13T09:51:52.922Z,9.13
2022-11-13T09:54:20.405Z,8.63
2022-11-13T09:56:57.468Z,11.27
2022-11-13T09:59:35.744Z,10.48
2022-11-13T10:02:16.904Z,10.30
2022-11-13T10:05:10.765Z,11.02
2022-11-13T10:07:44.325Z,7.45
2022-11-13T10:10:17.793Z,11.05
2022-11-13T10:12:46.977Z,10.88
2022-11-13T10:15:15.041Z,11.68
2022-11-13T10:17:55.260Z,9.88
2022-11-13T10:20:34.757Z,8.50
2022-11-13T10:23:19.393Z,8.10
2022-11-13T10:25:46.029Z,9.65
2022-11-13T10:31:11.742Z,10.25
2022-11-13T10:36:15.040Z,7.93
2022-11-13T10:38:50.061Z,10.40
2022-11-13T10:41:21.698Z,10.60
2022-11-13T10:44:09.294Z,8.88
2022-11-13T10:46:35.648Z,8.90
2022-11-13T10:49:19.989Z,10.93
2022-11-13T10:51:57.889Z,9.50
2022-11-13T10:54:28.083Z,9.43
2022-11-13T10:57:03.448Z,10.15
2022-11-13T10:59:41.288Z,9.50
2022-11-13T11:02:21.174Z,11.07
2022-11-13T11:04:48.263Z,10.13
2022-11-13T11:07:21.513Z,10.27
2022-11-13T11:09:50.837Z,10.63
2022-11-13T11:12:30.624Z,10.95
2022-11-13T11:15:00.600Z,8.35
2022-11-13T11:18:11.417Z,10.52
2022-11-13T11:20:52.053Z,10.20
2022-11-13T11:23:25.431Z,10.80
2022-11-13T11:25:57.118Z,10.50
2022-11-13T11:28:42.033Z,11.07
2022-11-13T11:31:49.753Z,10.65
2022-11-13T11:34:25.517Z,10.93
2022-11-13T11:36:51.763Z,8.77
2022-11-13T11:39:37.882Z,11.00
2022-11-13T11:42:22.626Z,9.63
2022-11-13T11:44:58.155Z,10.52
2022-11-13T11:47:24.553Z,9.70
2022-11-13T11:49:50.962Z,9.40
2022-11-13T11:52:44.111Z,9.25
2022-11-13T11:55:33.839Z,9.90
2022-11-13T11:58:15.818Z,7.75
2022-11-13T12:00:50.549Z,9.30
2022-11-13T12:03:39.838Z,9.00
2022-11-13T12:06:15.755Z,8.48
2022-11-13T12:09:05.154Z,8.45
2022-11-13T12:11:34.636Z,8.07
2022-11-13T12:14:06.238Z,8.20
2022-11-13T12:16:54.399Z,8.40
2022-11-13T12:19:35.896Z,9.60
2022-11-13T12:22:10.857Z,9.77
2022-11-13T12:25:11.248Z,9.88
2022-11-13T12:27:58.498Z,8.18
2022-11-13T12:30:42.418Z,8.15
2022-11-13T12:33:21.059Z,8.85
2022-11-13T12:35:50.777Z,8.88
2022-11-13T12:38:39.803Z,8.82
2022-11-13T12:41:17.882Z,8.85
2022-11-13T12:44:01.686Z,8.60
2022-11-13T12:46:34.747Z,8.70
2022-11-13T12:49:01.401Z,7.97
2022-11-13T12:51:41.179Z,8.45
2022-11-13T12:54:10.354Z,7.88
2022-11-13T12:56:36.882Z,7.60
2022-11-13T12:59:33.803Z,7.53
2022-11-13T13:02:03.004Z,7.28
2022-11-13T13:04:52.313Z,8.02
2022-11-13T13:07:44.932Z,7.60
2022-11-13T13:10:23.538Z,7.28
2022-11-13T13:13:23.686Z,7.72
2022-11-13T13:15:57.590Z,7.63
2022-11-13T13:18:28.516Z,7.80
2022-11-13T13:21:12.202Z,8.27
2022-11-13T13:23:44.154Z,7.43
2022-11-13T13:26:13.284Z,7.35
2022-11-13T13:28:41.831Z,7.32
2022-11-13T13:31:19.674Z,7.82
2022-11-13T13:34:22.211Z,7.93
2022-11-13T13:37:22.502Z,7.82
2022-11-13T13:39:57.820Z,7.35
2022-11-13T13:42:36.286Z,7.45
2022-11-13T13:45:56.388Z,7.80
2022-11-13T13:48:27.160Z,8.20
2022-11-13T13:50:53.860Z,7.28
2022-11-13T13:53:34.616Z,7.60
2022-11-13T13:56:04.360Z,7.47
2022-11-13T13:58:36.306Z,6.80
2022-11-13T14:01:18.439Z,7.25
2022-11-13T14:03:45.497Z,7.10
2022-11-13T14:06:23.605Z,6.70
2022-11-13T14:08:50.266Z,7.07
2022-11-13T14:11:29.469Z,8.02
2022-11-13T14:14:07.273Z,8.55
2022-11-13T14:16:33.570Z,7.85
2022-11-13T14:19:05.155Z,7.65
2022-11-13T14:21:31.743Z,7.75
2022-11-13T14:24:01.382Z,6.40
2022-11-13T14:26:29.496Z,6.20
2022-11-13T14:28:57.262Z,6.72
2022-11-13T14:31:30.168Z,6.78
2022-11-13T14:34:00.036Z,6.13
2022-11-13T14:36:31.351Z,6.38
2022-11-13T14:38:58.923Z,6.28
2022-11-13T14:41:36.644Z,5.97
2022-11-13T14:44:03.635Z,5.53
2022-11-13T14:46:31.464Z,6.32
2022-11-13T14:48:57.809Z,6.35
2022-11-13T14:51:32.504Z,6.07
2022-11-13T14:54:06.134Z,6.13
2022-11-13T14:56:43.512Z,5.75
2022-11-13T14:59:26.459Z,5.88
2022-11-13T15:01:57.419Z,6.25
2022-11-13T15:04:24.820Z,5.70
2022-11-13T15:06:55.481Z,5.63
2022-11-13T15:09:24.195Z,5.10
2022-11-13T15:14:19.005Z,3.67
2022-11-13T15:16:46.983Z,4.80
2022-11-13T15:19:13.309Z,4.70
2022-11-13T15:21:40.871Z,4.90
2022-11-13T15:24:07.217Z,5.30
2022-11-13T15:26:34.742Z,5.30
2022-11-13T15:29:01.106Z,5.18
2022-11-13T15:31:36.213Z,6.25
2022-11-13T15:34:02.944Z,7.45
2022-11-13T15:36:29.402Z,9.05
2022-11-13T15:38:55.781Z,7.60
2022-11-13T15:41:25.459Z,6.25
2022-11-13T15:43:53.975Z,5.68
2022-11-13T15:48:49.070Z,4.82
2022-11-13T15:51:39.607Z,5.75
2022-11-13T15:54:17.742Z,5.32
2022-11-13T15:56:46.490Z,5.55
2022-11-13T15:59:14.144Z,4.97
2022-11-13T16:01:41.008Z,4.47
2022-11-13T16:04:08.251Z,5.53
2022-11-13T16:06:35.701Z,6.45
2022-11-13T16:09:03.793Z,5.75
2022-11-13T16:11:32.098Z,5.63
2022-11-13T16:13:58.505Z,6.93
2022-11-13T16:16:29.848Z,5.70
2022-11-13T16:19:00.253Z,7.07
2022-11-13T16:21:27.507Z,6.75
2022-11-13T16:23:53.985Z,6.53
2022-11-13T16:26:25.442Z,6.85
2022-11-13T16:29:12.874Z,6.93
2022-11-13T16:31:39.796Z,6.97
2022-11-13T16:34:06.333Z,7.28
2022-11-13T16:36:32.668Z,7.60
2022-11-13T16:38:58.985Z,7.00
2022-11-13T16:41:25.405Z,7.15
2022-11-13T16:43:51.709Z,7.10
2022-11-13T16:46:28.031Z,7.70
2022-11-13T16:48:54.422Z,7.13
2022-11-13T16:51:21.059Z,7.40
2022-11-13T16:53:47.407Z,7.32
2022-11-13T16:56:16.536Z,7.35
2022-11-13T16:58:43.149Z,8.30
2022-11-13T17:01:18.416Z,7.97
2022-11-13T17:03:45.658Z,7.45
2022-11-13T17:06:27.873Z,7.22
2022-11-13T17:08:55.933Z,8.20
2022-11-13T17:11:23.689Z,7.82
2022-11-13T17:13:50.932Z,8.63
2022-11-13T17:16:17.856Z,7.90
2022-11-13T17:19:03.661Z,8.07
2022-11-13T17:21:30.056Z,8.00
2022-11-13T17:24:02.368Z,7.35
2022-11-13T17:26:30.206Z,5.97
2022-11-13T17:28:59.279Z,7.88
2022-11-13T17:31:25.992Z,8.10
2022-11-13T17:33:53.892Z,7.22
2022-11-13T17:36:21.114Z,7.97
2022-11-13T17:38:47.720Z,7.95
2022-11-13T17:41:16.310Z,7.50
2022-11-13T17:46:14.751Z,7.15
2022-11-13T17:48:41.589Z,7.43
2022-11-13T17:51:11.540Z,7.57
2022-11-13T17:53:38.037Z,7.50
2022-11-13T17:56:08.031Z,7.70
2022-11-13T17:58:42.710Z,8.27
2022-11-13T18:01:17.757Z,8.52
2022-11-13T18:03:44.169Z,7.47
2022-11-13T18:06:19.991Z,8.10
2022-11-13T18:08:47.096Z,7.88
2022-11-13T18:11:21.821Z,8.70
2022-11-13T18:13:50.034Z,7.35
2022-11-13T18:16:21.369Z,7.82
2022-11-13T18:18:50.100Z,6.70
2022-11-13T18:21:22.861Z,7.00
2022-11-13T18:23:55.930Z,7.35
2022-11-13T18:26:22.372Z,6.88
2022-11-13T18:28:48.702Z,7.43
2022-11-13T18:31:18.246Z,7.65
2022-11-13T18:33:44.957Z,6.65
2022-11-13T18:36:11.716Z,7.20
2022-11-13T18:38:38.196Z,7.47
2022-11-13T18:41:07.721Z,7.82
2022-11-13T18:43:36.244Z,8.07
2022-11-13T18:46:05.702Z,6.97
2022-11-13T18:48:34.176Z,7.50
2022-11-13T18:51:03.595Z,7.72
2022-11-13T18:53:30.751Z,7.22
2022-11-13T18:56:02.613Z,6.68
2022-11-13T18:58:29.411Z,7.28
2022-11-13T19:00:56.506Z,7.70
2022-11-13T19:03:24.220Z,7.45
2022-11-13T19:05:50.772Z,8.85
2022-11-13T19:08:17.168Z,9.15
2022-11-13T19:10:43.642Z,8.75
2022-11-13T19:13:10.091Z,8.75
2022-11-13T19:15:38.037Z,9.15
2022-11-13T19:18:07.421Z,8.38
2022-11-13T19:20:37.168Z,9.15
2022-11-13T19:23:08.889Z,8.70
2022-11-13T19:25:35.701Z,10.65
2022-11-13T19:28:02.517Z,11.07
2022-11-13T19:30:28.895Z,10.68
2022-11-13T19:32:55.330Z,12.15
2022-11-13T19:35:21.781Z,11.10
2022-11-13T19:37:48.167Z,10.50
2022-11-13T19:40:14.548Z,9.20
2022-11-13T19:42:42.188Z,9.07
2022-11-13T19:45:09.846Z,8.88
2022-11-13T19:47:36.207Z,9.18
2022-11-13T19:50:02.605Z,8.75
2022-11-13T19:52:28.978Z,8.30
2022-11-13T19:54:55.387Z,9.07
2022-11-13T19:57:21.736Z,8.75
2022-11-13T19:59:48.055Z,8.10
2022-11-13T20:02:14.417Z,9.07
2022-11-13T20:04:40.771Z,7.88
2022-11-13T20:07:07.231Z,8.18
2022-11-13T20:09:33.604Z,8.40
2022-11-13T20:11:59.951Z,9.00
2022-11-13T20:14:26.290Z,8.65
2022-11-13T20:16:52.647Z,8.32
2022-11-13T20:19:19.122Z,8.98
2022-11-13T20:21:45.480Z,9.07
2022-11-13T20:24:11.929Z,8.50
2022-11-13T20:26:38.402Z,8.77
2022-11-13T20:29:04.771Z,7.97
2022-11-13T20:31:31.260Z,8.05
2022-11-13T20:33:57.741Z,8.63
2022-11-13T20:36:24.476Z,8.88
2022-11-13T20:38:57.222Z,8.73
2022-11-13T20:41:24.582Z,8.30
2022-11-13T20:43:52.034Z,9.18
2022-11-13T20:46:20.963Z,8.80
2022-11-13T20:48:48.134Z,8.90
2022-11-13T20:51:20.697Z,9.85
2022-11-13T20:53:47.901Z,9.57
2022-11-13T20:56:14.920Z,9.23
2022-11-13T20:58:41.850Z,9.30
2022-11-13T21:01:11.263Z,9.45
2022-11-13T21:03:41.285Z,9.82
2022-11-13T21:06:10.637Z,9.68
2022-11-13T21:08:37.504Z,10.02
2022-11-13T21:11:08.190Z,9.23
2022-11-13T21:13:34.861Z,10.70
2022-11-13T21:16:06.239Z,9.90
2022-11-13T21:18:32.847Z,9.02
2022-11-13T21:21:13.904Z,9.52
2022-11-13T21:23:40.383Z,9.57
2022-11-13T21:26:08.134Z,9.80
2022-11-13T21:28:35.518Z,9.40
2022-11-13T21:31:03.746Z,9.63
2022-11-13T21:33:35.203Z,9.40
2022-11-13T21:36:09.748Z,9.98
2022-11-13T21:38:36.181Z,9.23
2022-11-13T21:41:24.425Z,9.45
2022-11-13T21:44:03.191Z,9.20
2022-11-13T21:46:32.679Z,10.05
2022-11-13T21:49:09.251Z,9.52
2022-11-13T21:51:37.638Z,8.55
2022-11-13T21:54:04.801Z,10.15
2022-11-13T21:56:32.867Z,11.73
2022-11-13T21:58:59.285Z,10.90
2022-11-13T22:01:26.384Z,10.43
2022-11-13T22:03:53.659Z,10.45
2022-11-13T22:06:25.850Z,10.48
2022-11-13T22:09:01.213Z,9.63
2022-11-13T22:11:30.442Z,10.35
2022-11-13T22:13:57.341Z,9.10
2022-11-13T22:16:24.825Z,10.15
2022-11-13T22:18:55.760Z,9.45
2022-11-13T22:21:23.107Z,9.52
2022-11-13T22:23:50.008Z,10.15
2022-11-13T22:26:18.042Z,10.77
2022-11-13T22:28:46.141Z,10.27
2022-11-13T22:31:18.310Z,10.32
2022-11-13T22:33:48.276Z,10.75
2022-11-13T22:36:19.629Z,10.80
2022-11-13T22:38:46.195Z,10.45
2022-11-13T22:41:22.681Z,10.25
2022-11-13T22:44:00.823Z,10.65
2022-11-13T22:46:30.229Z,11.23
2022-11-13T22:48:59.598Z,11.15
2022-11-13T22:51:31.929Z,10.25
2022-11-13T22:54:01.129Z,10.35
2022-11-13T22:56:31.282Z,11.27
2022-11-13T22:58:59.880Z,10.13
2022-11-13T23:01:28.765Z,13.45
2022-11-13T23:03:56.665Z,13.18
2022-11-13T23:06:28.545Z,13.35
2022-11-13T23:08:55.486Z,12.27
2022-11-13T23:11:33.339Z,12.05
2022-11-13T23:14:03.401Z,12.77
2022-11-13T23:16:30.733Z,11.68
2022-11-13T23:18:59.074Z,12.27
2022-11-13T23:21:27.225Z,12.00
2022-11-13T23:23:54.548Z,12.88
2022-11-13T23:26:21.715Z,12.27
2022-11-13T23:28:48.178Z,13.50
2022-11-13T23:31:14.666Z,13.38
2022-11-13T23:33:41.073Z,13.05
2022-11-13T23:36:09.572Z,14.27
2022-11-13T23:38:36.066Z,14.63
2022-11-13T23:41:02.987Z,14.85
2022-11-13T23:43:54.249Z,13.75
2022-11-13T23:46:16.712Z,14.65
2022-11-13T23:48:43.094Z,15.00
2022-11-13T23:51:09.465Z,15.70
2022-11-13T23:53:35.940Z,15.20
2022-11-13T23:56:02.466Z,15.40
2022-11-13T23:58:29.313Z,15.48
